sensor_id;sensor_type;location;lat;lon;timestamp;pressure;altitude;pressure_sealevel;temperature;humidity
59767;BME280;46248;58.364;25.582;2023-04-08T00:00:32;101876.28;;;1.35;64.28
59767;BME280;46248;58.364;25.582;2023-04-08T00:03:55;101870.25;;;1.35;64.38
59767;BME280;46248;58.364;25.582;2023-04-08T00:07:17;101878.91;;;1.40;63.88
59767;BME280;46248;58.364;25.582;2023-04-08T00:10:39;101850.38;;;1.23;63.94
59767;BME280;46248;58.364;25.582;2023-04-08T00:14:02;101865.13;;;1.36;63.87
59767;BME280;46248;58.364;25.582;2023-04-08T00:17:24;101878.06;;;1.41;63.92
59767;BME280;46248;58.364;25.582;2023-04-08T00:20:48;101874.59;;;1.39;64.15
59767;BME280;46248;58.364;25.582;2023-04-08T00:24:09;101865.03;;;1.26;64.44
59767;BME280;46248;58.364;25.582;2023-04-08T00:27:31;101877.09;;;1.30;64.29
59767;BME280;46248;58.364;25.582;2023-04-08T00:30:53;101883.97;;;1.28;64.10
59767;BME280;46248;58.364;25.582;2023-04-08T00:34:15;101872.72;;;1.18;64.34
59767;BME280;46248;58.364;25.582;2023-04-08T00:37:39;101886.47;;;1.20;64.51
59767;BME280;46248;58.364;25.582;2023-04-08T00:41:01;101882.09;;;1.14;64.51
59767;BME280;46248;58.364;25.582;2023-04-08T00:44:23;101884.69;;;1.14;64.59
59767;BME280;46248;58.364;25.582;2023-04-08T00:47:45;101874.38;;;1.13;64.74
59767;BME280;46248;58.364;25.582;2023-04-08T00:51:12;101861.38;;;1.01;64.88
59767;BME280;46248;58.364;25.582;2023-04-08T00:54:36;101878.59;;;1.05;65.36
59767;BME280;46248;58.364;25.582;2023-04-08T00:57:59;101869.06;;;0.98;65.49
59767;BME280;46248;58.364;25.582;2023-04-08T01:01:25;101874.16;;;0.93;66.11
59767;BME280;46248;58.364;25.582;2023-04-08T01:04:55;101866.38;;;0.85;66.53
59767;BME280;46248;58.364;25.582;2023-04-08T01:08:21;101856.81;;;0.77;66.65
59767;BME280;46248;58.364;25.582;2023-04-08T01:11:49;101864.53;;;0.75;66.78
59767;BME280;46248;58.364;25.582;2023-04-08T01:15:12;101868.81;;;0.75;66.78
59767;BME280;46248;58.364;25.582;2023-04-08T01:18:35;101867.09;;;0.74;67.14
59767;BME280;46248;58.364;25.582;2023-04-08T01:22:02;101867.94;;;0.71;67.14
59767;BME280;46248;58.364;25.582;2023-04-08T01:25:29;101873.91;;;0.67;67.13
59767;BME280;46248;58.364;25.582;2023-04-08T01:28:55;101864.38;;;0.63;67.77
59767;BME280;46248;58.364;25.582;2023-04-08T01:32:18;101873.84;;;0.61;67.61
59767;BME280;46248;58.364;25.582;2023-04-08T01:35:41;101868.63;;;0.56;67.85
59767;BME280;46248;58.364;25.582;2023-04-08T01:39:04;101872.06;;;0.57;68.28
59767;BME280;46248;58.364;25.582;2023-04-08T01:42:28;101869.44;;;0.54;68.40
59767;BME280;46248;58.364;25.582;2023-04-08T01:45:53;101874.59;;;0.52;68.48
59767;BME280;46248;58.364;25.582;2023-04-08T01:49:18;101879.72;;;0.51;68.91
59767;BME280;46248;58.364;25.582;2023-04-08T01:52:40;101876.25;;;0.47;68.63
59767;BME280;46248;58.364;25.582;2023-04-08T01:56:06;101870.19;;;0.45;68.60
59767;BME280;46248;58.364;25.582;2023-04-08T01:59:30;101870.22;;;0.47;69.08
59767;BME280;46248;58.364;25.582;2023-04-08T02:02:57;101872.75;;;0.43;69.44
59767;BME280;46248;58.364;25.582;2023-04-08T02:06:20;101873.59;;;0.39;69.58
59767;BME280;46248;58.364;25.582;2023-04-08T02:09:42;101870.97;;;0.38;69.28
59767;BME280;46248;58.364;25.582;2023-04-08T02:13:04;101871.78;;;0.35;70.02
59767;BME280;46248;58.364;25.582;2023-04-08T02:16:30;101874.38;;;0.35;69.81
59767;BME280;46248;58.364;25.582;2023-04-08T02:20:00;101876.94;;;0.35;70.15
59767;BME280;46248;58.364;25.582;2023-04-08T02:23:24;101871.75;;;0.32;69.98
59767;BME280;46248;58.364;25.582;2023-04-08T02:26:49;101875.16;;;0.30;70.05
59767;BME280;46248;58.364;25.582;2023-04-08T02:30:12;101874.28;;;0.28;69.99
59767;BME280;46248;58.364;25.582;2023-04-08T02:33:36;101879.41;;;0.25;70.61
59767;BME280;46248;58.364;25.582;2023-04-08T02:37:01;101875.03;;;0.20;70.57
59767;BME280;46248;58.364;25.582;2023-04-08T02:40:24;101875.03;;;0.19;70.94
59767;BME280;46248;58.364;25.582;2023-04-08T02:43:46;101879.34;;;0.20;70.71
59767;BME280;46248;58.364;25.582;2023-04-08T02:47:08;101881.91;;;0.20;70.62
59767;BME280;46248;58.364;25.582;2023-04-08T02:50:30;101880.22;;;0.22;70.64
59767;BME280;46248;58.364;25.582;2023-04-08T02:53:54;101879.28;;;0.17;70.88
59767;BME280;46248;58.364;25.582;2023-04-08T02:57:15;101876.78;;;0.23;70.48
59767;BME280;46248;58.364;25.582;2023-04-08T03:00:37;101873.41;;;0.26;70.57
59767;BME280;46248;58.364;25.582;2023-04-08T03:03:59;101870.81;;;0.27;70.32
59767;BME280;46248;58.364;25.582;2023-04-08T03:07:21;101866.56;;;0.28;69.87
59767;BME280;46248;58.364;25.582;2023-04-08T03:10:45;101870.88;;;0.30;69.55
59767;BME280;46248;58.364;25.582;2023-04-08T03:14:06;101881.19;;;0.32;69.62
59767;BME280;46248;58.364;25.582;2023-04-08T03:17:28;101879.47;;;0.31;69.78
59767;BME280;46248;58.364;25.582;2023-04-08T03:20:53;101883.78;;;0.32;69.42
59767;BME280;46248;58.364;25.582;2023-04-08T03:24:15;101880.31;;;0.30;69.92
59767;BME280;46248;58.364;25.582;2023-04-08T03:27:38;101872.50;;;0.22;69.83
59767;BME280;46248;58.364;25.582;2023-04-08T03:31:03;101876.78;;;0.23;69.76
59767;BME280;46248;58.364;25.582;2023-04-08T03:34:25;101880.28;;;0.27;70.09
59767;BME280;46248;58.364;25.582;2023-04-08T03:37:47;101876.75;;;0.18;70.03
59767;BME280;46248;58.364;25.582;2023-04-08T03:41:10;101882.81;;;0.22;70.05
59767;BME280;46248;58.364;25.582;2023-04-08T03:44:34;101880.22;;;0.22;70.02
59767;BME280;46248;58.364;25.582;2023-04-08T03:47:56;101886.25;;;0.24;70.31
59767;BME280;46248;58.364;25.582;2023-04-08T03:51:18;101893.16;;;0.25;70.05
59767;BME280;46248;58.364;25.582;2023-04-08T03:54:39;101892.31;;;0.28;69.92
59767;BME280;46248;58.364;25.582;2023-04-08T03:58:01;101895.81;;;0.33;69.56
59767;BME280;46248;58.364;25.582;2023-04-08T04:01:25;101899.28;;;0.36;69.45
59767;BME280;46248;58.364;25.582;2023-04-08T04:04:47;101901.97;;;0.42;69.48
59767;BME280;46248;58.364;25.582;2023-04-08T04:08:09;101904.63;;;0.49;69.36
59767;BME280;46248;58.364;25.582;2023-04-08T04:11:30;101897.75;;;0.49;69.26
59767;BME280;46248;58.364;25.582;2023-04-08T04:14:54;101888.25;;;0.47;68.88
59767;BME280;46248;58.364;25.582;2023-04-08T04:18:17;101911.69;;;0.66;68.76
59767;BME280;46248;58.364;25.582;2023-04-08T04:21:39;101911.78;;;0.74;68.46
59767;BME280;46248;58.364;25.582;2023-04-08T04:25:01;101913.59;;;0.83;68.02
59767;BME280;46248;58.364;25.582;2023-04-08T04:28:23;101905.94;;;0.89;68.46
59767;BME280;46248;58.364;25.582;2023-04-08T04:31:45;101906.09;;;1.04;67.73
59767;BME280;46248;58.364;25.582;2023-04-08T04:35:09;101906.25;;;1.18;67.46
59767;BME280;46248;58.364;25.582;2023-04-08T04:38:31;101901.16;;;1.26;67.16
59767;BME280;46248;58.364;25.582;2023-04-08T04:41:53;101905.56;;;1.42;66.62
59767;BME280;46248;58.364;25.582;2023-04-08T04:45:15;101902.22;;;1.51;65.97
59767;BME280;46248;58.364;25.582;2023-04-08T04:48:37;101906.63;;;1.61;65.79
59767;BME280;46248;58.364;25.582;2023-04-08T04:52:00;101896.34;;;1.72;65.45
59767;BME280;46248;58.364;25.582;2023-04-08T04:55:23;101898.16;;;1.83;65.09
59767;BME280;46248;58.364;25.582;2023-04-08T04:58:45;101904.28;;;1.98;64.75
59767;BME280;46248;58.364;25.582;2023-04-08T05:02:08;101900.06;;;2.14;64.57
59767;BME280;46248;58.364;25.582;2023-04-08T05:05:30;101904.47;;;2.27;64.85
59767;BME280;46248;58.364;25.582;2023-04-08T05:08:53;101901.94;;;2.41;63.05
59767;BME280;46248;58.364;25.582;2023-04-08T05:12:15;101910.66;;;2.58;63.70
59767;BME280;46248;58.364;25.582;2023-04-08T05:15:36;101901.22;;;2.72;62.28
59767;BME280;46248;58.364;25.582;2023-04-08T05:18:58;101904.69;;;2.90;61.78
59767;BME280;46248;58.364;25.582;2023-04-08T05:22:20;101903.03;;;3.09;61.43
59767;BME280;46248;58.364;25.582;2023-04-08T05:25:43;101903.06;;;3.24;61.64
59767;BME280;46248;58.364;25.582;2023-04-08T05:29:05;101906.53;;;3.43;60.76
59767;BME280;46248;58.364;25.582;2023-04-08T05:32:27;101898.72;;;3.60;60.83
59767;BME280;46248;58.364;25.582;2023-04-08T05:35:50;101905.66;;;3.79;59.70
59767;BME280;46248;58.364;25.582;2023-04-08T05:39:12;101911.69;;;4.00;59.86
59767;BME280;46248;58.364;25.582;2023-04-08T05:42:35;101905.56;;;4.19;58.51
59767;BME280;46248;58.364;25.582;2023-04-08T05:45:57;101881.34;;;4.25;57.56
59767;BME280;46248;58.364;25.582;2023-04-08T05:49:19;101909.78;;;4.49;57.00
59767;BME280;46248;58.364;25.582;2023-04-08T05:52:41;101909.72;;;4.68;57.16
59767;BME280;46248;58.364;25.582;2023-04-08T05:56:05;101913.09;;;4.83;56.77
59767;BME280;46248;58.364;25.582;2023-04-08T05:59:31;101918.19;;;4.99;55.53
59767;BME280;46248;58.364;25.582;2023-04-08T06:02:52;101909.47;;;5.12;57.11
59767;BME280;46248;58.364;25.582;2023-04-08T06:06:15;101912.75;;;5.37;56.00
59767;BME280;46248;58.364;25.582;2023-04-08T06:09:37;101905.72;;;5.53;55.20
59767;BME280;46248;58.364;25.582;2023-04-08T06:12:59;101914.19;;;5.78;54.50
59767;BME280;46248;58.364;25.582;2023-04-08T06:16:22;101913.16;;;5.97;54.89
59767;BME280;46248;58.364;25.582;2023-04-08T06:19:44;101915.59;;;6.13;53.66
59767;BME280;46248;58.364;25.582;2023-04-08T06:23:07;101916.25;;;6.32;53.75
59767;BME280;46248;58.364;25.582;2023-04-08T06:26:29;101917.00;;;6.45;52.56
59767;BME280;46248;58.364;25.582;2023-04-08T06:29:51;101929.00;;;6.55;51.85
59767;BME280;46248;58.364;25.582;2023-04-08T06:33:16;101917.66;;;6.60;52.72
59767;BME280;46248;58.364;25.582;2023-04-08T06:36:40;101927.78;;;6.82;51.72
59767;BME280;46248;58.364;25.582;2023-04-08T06:40:02;101925.84;;;6.98;52.70
59767;BME280;46248;58.364;25.582;2023-04-08T06:43:24;101905.78;;;7.06;53.01
59767;BME280;46248;58.364;25.582;2023-04-08T06:46:47;101927.00;;;7.37;51.85
59767;BME280;46248;58.364;25.582;2023-04-08T06:50:10;101909.47;;;7.48;50.00
59767;BME280;46248;58.364;25.582;2023-04-08T06:53:32;101925.69;;;7.66;50.69
59767;BME280;46248;58.364;25.582;2023-04-08T06:56:56;101921.06;;;7.82;51.84
59767;BME280;46248;58.364;25.582;2023-04-08T07:00:18;101919.16;;;7.93;48.14
59767;BME280;46248;58.364;25.582;2023-04-08T07:03:40;101931.06;;;8.06;49.50
59767;BME280;46248;58.364;25.582;2023-04-08T07:07:03;101923.06;;;8.15;48.96
59767;BME280;46248;58.364;25.582;2023-04-08T07:10:26;101917.75;;;8.20;46.17
59767;BME280;46248;58.364;25.582;2023-04-08T07:13:49;101919.25;;;8.32;46.97
59767;BME280;46248;58.364;25.582;2023-04-08T07:17:12;101920.06;;;8.38;47.05
59767;BME280;46248;58.364;25.582;2023-04-08T07:20:34;101928.44;;;8.54;48.50
59767;BME280;46248;58.364;25.582;2023-04-08T07:23:59;101922.00;;;8.70;48.39
59767;BME280;46248;58.364;25.582;2023-04-08T07:27:21;101931.25;;;8.85;47.00
59767;BME280;46248;58.364;25.582;2023-04-08T07:30:43;101927.69;;;8.89;47.16
59767;BME280;46248;58.364;25.582;2023-04-08T07:34:05;101914.44;;;8.99;48.12
59767;BME280;46248;58.364;25.582;2023-04-08T07:37:27;101918.56;;;9.09;45.02
59767;BME280;46248;58.364;25.582;2023-04-08T07:40:50;101927.97;;;9.16;45.65
59767;BME280;46248;58.364;25.582;2023-04-08T07:44:12;101930.44;;;9.22;45.56
59767;BME280;46248;58.364;25.582;2023-04-08T07:47:36;101930.34;;;9.27;45.62
59767;BME280;46248;58.364;25.582;2023-04-08T07:51:02;101926.66;;;9.35;44.51
59767;BME280;46248;58.364;25.582;2023-04-08T07:54:30;101935.06;;;9.48;46.45
59767;BME280;46248;58.364;25.582;2023-04-08T07:57:54;101926.94;;;9.59;45.94
59767;BME280;46248;58.364;25.582;2023-04-08T08:01:17;101922.41;;;9.67;43.21
59767;BME280;46248;58.364;25.582;2023-04-08T08:04:40;101927.44;;;9.75;45.58
59767;BME280;46248;58.364;25.582;2023-04-08T08:08:03;101909.69;;;9.88;44.59
59767;BME280;46248;58.364;25.582;2023-04-08T08:11:27;101926.66;;;10.05;43.84
59767;BME280;46248;58.364;25.582;2023-04-08T08:14:50;101916.09;;;10.08;44.16
59767;BME280;46248;58.364;25.582;2023-04-08T08:18:14;101923.69;;;10.18;43.74
59767;BME280;46248;58.364;25.582;2023-04-08T08:21:36;101907.06;;;10.20;43.23
59767;BME280;46248;58.364;25.582;2023-04-08T08:24:59;101912.16;;;10.26;43.54
59767;BME280;46248;58.364;25.582;2023-04-08T08:28:21;101917.06;;;10.37;44.05
59767;BME280;46248;58.364;25.582;2023-04-08T08:31:44;101924.00;;;10.40;40.92
59767;BME280;46248;58.364;25.582;2023-04-08T08:35:08;101923.06;;;10.42;41.48
59767;BME280;46248;58.364;25.582;2023-04-08T08:38:30;101923.00;;;10.44;41.88
59767;BME280;46248;58.364;25.582;2023-04-08T08:41:53;101915.75;;;10.53;41.82
59767;BME280;46248;58.364;25.582;2023-04-08T08:45:17;101918.03;;;10.66;42.71
59767;BME280;46248;58.364;25.582;2023-04-08T08:48:41;101919.44;;;10.77;41.58
59767;BME280;46248;58.364;25.582;2023-04-08T08:52:04;101914.84;;;10.84;41.57
59767;BME280;46248;58.364;25.582;2023-04-08T08:55:29;101905.19;;;10.86;41.39
59767;BME280;46248;58.364;25.582;2023-04-08T08:59:11;101919.94;;;10.89;39.87
59767;BME280;46248;58.364;25.582;2023-04-08T09:02:33;101911.22;;;10.88;40.34
59767;BME280;46248;58.364;25.582;2023-04-08T09:06:00;101898.94;;;10.90;41.53
59767;BME280;46248;58.364;25.582;2023-04-08T09:09:24;101910.06;;;10.98;41.42
59767;BME280;46248;58.364;25.582;2023-04-08T09:12:53;101896.97;;;10.98;40.98
59767;BME280;46248;58.364;25.582;2023-04-08T09:16:18;101901.00;;;11.09;40.70
59767;BME280;46248;58.364;25.582;2023-04-08T09:20:04;101890.59;;;11.06;38.65
59767;BME280;46248;58.364;25.582;2023-04-08T09:23:48;101895.66;;;11.12;41.10
59767;BME280;46248;58.364;25.582;2023-04-08T09:27:12;101893.06;;;11.10;40.40
59767;BME280;46248;58.364;25.582;2023-04-08T09:30:34;101895.03;;;11.04;40.07
59767;BME280;46248;58.364;25.582;2023-04-08T09:33:58;101887.31;;;10.99;39.50
59767;BME280;46248;58.364;25.582;2023-04-08T09:37:20;101899.31;;;11.06;41.01
59767;BME280;46248;58.364;25.582;2023-04-08T09:40:44;101895.59;;;11.13;40.48
59767;BME280;46248;58.364;25.582;2023-04-08T09:44:07;101898.09;;;11.18;39.93
59767;BME280;46248;58.364;25.582;2023-04-08T09:47:32;101896.31;;;11.18;40.48
59767;BME280;46248;58.364;25.582;2023-04-08T09:50:58;101895.38;;;11.21;39.89
59767;BME280;46248;58.364;25.582;2023-04-08T09:54:21;101899.59;;;11.25;39.77
59767;BME280;46248;58.364;25.582;2023-04-08T09:57:51;101897.75;;;11.29;40.07
59767;BME280;46248;58.364;25.582;2023-04-08T10:01:14;101885.53;;;11.28;40.64
59767;BME280;46248;58.364;25.582;2023-04-08T10:04:40;101898.41;;;11.35;38.61
59767;BME280;46248;58.364;25.582;2023-04-08T10:08:04;101890.34;;;11.41;39.89
59767;BME280;46248;58.364;25.582;2023-04-08T10:11:26;101893.00;;;11.40;38.48
59767;BME280;46248;58.364;25.582;2023-04-08T10:15:22;101887.72;;;11.41;38.69
59767;BME280;46248;58.364;25.582;2023-04-08T10:18:44;101883.47;;;11.37;39.76
59767;BME280;46248;58.364;25.582;2023-04-08T10:26:30;101877.22;;;11.41;38.78
59767;BME280;46248;58.364;25.582;2023-04-08T10:29:52;101880.69;;;11.42;38.81
59767;BME280;46248;58.364;25.582;2023-04-08T10:33:17;101878.09;;;11.42;39.10
59767;BME280;46248;58.364;25.582;2023-04-08T10:36:39;101872.66;;;11.46;39.52
59767;BME280;46248;58.364;25.582;2023-04-08T10:40:03;101874.22;;;11.52;38.69
59767;BME280;46248;58.364;25.582;2023-04-08T10:43:31;101878.63;;;11.52;37.89
59767;BME280;46248;58.364;25.582;2023-04-08T10:46:53;101869.06;;;11.51;37.85
59767;BME280;46248;58.364;25.582;2023-04-08T10:50:18;101872.53;;;11.51;38.15
59767;BME280;46248;58.364;25.582;2023-04-08T10:53:43;101866.63;;;11.44;37.41
59767;BME280;46248;58.364;25.582;2023-04-08T10:57:05;101860.63;;;11.41;36.51
59767;BME280;46248;58.364;25.582;2023-04-08T11:00:32;101863.19;;;11.42;37.16
59767;BME280;46248;58.364;25.582;2023-04-08T11:03:54;101854.31;;;11.46;38.46
59767;BME280;46248;58.364;25.582;2023-04-08T11:07:20;101862.88;;;11.52;38.48
59767;BME280;46248;58.364;25.582;2023-04-08T11:10:42;101846.34;;;11.50;38.66
59767;BME280;46248;58.364;25.582;2023-04-08T11:14:05;101868.56;;;11.64;37.04
59767;BME280;46248;58.364;25.582;2023-04-08T11:17:27;101856.22;;;11.68;38.27
59767;BME280;46248;58.364;25.582;2023-04-08T11:20:49;101857.94;;;11.69;38.18
59767;BME280;46248;58.364;25.582;2023-04-08T11:24:13;101863.94;;;11.73;36.79
59767;BME280;46248;58.364;25.582;2023-04-08T11:27:36;101859.59;;;11.72;37.60
59767;BME280;46248;58.364;25.582;2023-04-08T11:30:59;101852.69;;;11.69;37.81
59767;BME280;46248;58.364;25.582;2023-04-08T11:34:23;101849.13;;;11.70;37.94
59767;BME280;46248;58.364;25.582;2023-04-08T11:37:45;101855.25;;;11.70;38.29
59767;BME280;46248;58.364;25.582;2023-04-08T11:41:10;101861.50;;;11.66;36.97
59767;BME280;46248;58.364;25.582;2023-04-08T11:44:32;101850.16;;;11.66;37.48
59767;BME280;46248;58.364;25.582;2023-04-08T11:47:54;101855.34;;;11.67;38.47
59767;BME280;46248;58.364;25.582;2023-04-08T11:51:16;101851.75;;;11.70;38.12
59767;BME280;46248;58.364;25.582;2023-04-08T11:54:40;101842.91;;;11.74;37.86
59767;BME280;46248;58.364;25.582;2023-04-08T11:58:04;101838.22;;;11.82;37.30
59767;BME280;46248;58.364;25.582;2023-04-08T12:01:27;101839.56;;;11.94;38.08
59767;BME280;46248;58.364;25.582;2023-04-08T12:04:49;101841.03;;;12.03;38.00
59767;BME280;46248;58.364;25.582;2023-04-08T12:08:12;101843.44;;;12.09;38.21
59767;BME280;46248;58.364;25.582;2023-04-08T12:11:34;101837.31;;;12.08;38.29
59767;BME280;46248;58.364;25.582;2023-04-08T12:14:57;101840.75;;;12.10;37.83
59767;BME280;46248;58.364;25.582;2023-04-08T12:18:19;101833.00;;;12.07;37.71
59767;BME280;46248;58.364;25.582;2023-04-08T12:21:42;101840.00;;;12.07;37.70
59767;BME280;46248;58.364;25.582;2023-04-08T12:25:05;101831.34;;;12.05;37.32
59767;BME280;46248;58.364;25.582;2023-04-08T12:28:27;101827.84;;;12.04;38.34
59767;BME280;46248;58.364;25.582;2023-04-08T12:31:50;101820.75;;;12.06;37.10
59767;BME280;46248;58.364;25.582;2023-04-08T12:35:13;101821.59;;;12.07;37.84
59767;BME280;46248;58.364;25.582;2023-04-08T12:38:35;101805.22;;;12.00;36.82
59767;BME280;46248;58.364;25.582;2023-04-08T12:41:57;101813.47;;;12.14;35.75
59767;BME280;46248;58.364;25.582;2023-04-08T12:45:20;101812.38;;;12.20;36.43
59767;BME280;46248;58.364;25.582;2023-04-08T12:48:43;101822.78;;;12.23;35.79
59767;BME280;46248;58.364;25.582;2023-04-08T12:52:07;101806.09;;;12.24;36.01
59767;BME280;46248;58.364;25.582;2023-04-08T12:55:28;101805.34;;;12.21;36.84
59767;BME280;46248;58.364;25.582;2023-04-08T12:58:50;101784.81;;;12.08;36.12
59767;BME280;46248;58.364;25.582;2023-04-08T13:02:12;101808.69;;;12.26;36.26
59767;BME280;46248;58.364;25.582;2023-04-08T13:05:36;101801.56;;;12.28;36.08
59767;BME280;46248;58.364;25.582;2023-04-08T13:09:03;101804.09;;;12.31;34.69
59767;BME280;46248;58.364;25.582;2023-04-08T13:12:25;101803.19;;;12.32;35.47
59767;BME280;46248;58.364;25.582;2023-04-08T13:15:47;101805.97;;;12.27;35.47
59767;BME280;46248;58.364;25.582;2023-04-08T13:19:09;101802.66;;;12.22;36.04
59767;BME280;46248;58.364;25.582;2023-04-08T13:22:33;101801.56;;;12.28;36.76
59767;BME280;46248;58.364;25.582;2023-04-08T13:25:55;101800.50;;;12.33;35.46
59767;BME280;46248;58.364;25.582;2023-04-08T13:29:17;101799.66;;;12.33;35.57
59767;BME280;46248;58.364;25.582;2023-04-08T13:32:39;101790.72;;;12.37;36.59
59767;BME280;46248;58.364;25.582;2023-04-08T13:36:01;101786.47;;;12.34;36.54
59767;BME280;46248;58.364;25.582;2023-04-08T13:39:24;101790.72;;;12.37;36.87
59767;BME280;46248;58.364;25.582;2023-04-08T13:42:46;101785.34;;;12.40;36.88
59767;BME280;46248;58.364;25.582;2023-04-08T13:46:08;101783.53;;;12.42;36.29
59767;BME280;46248;58.364;25.582;2023-04-08T13:49:30;101780.78;;;12.45;36.00
59767;BME280;46248;58.364;25.582;2023-04-08T13:52:52;101780.66;;;12.48;35.98
59767;BME280;46248;58.364;25.582;2023-04-08T13:56:16;101779.84;;;12.46;36.41
59767;BME280;46248;58.364;25.582;2023-04-08T13:59:38;101774.59;;;12.46;36.81
59767;BME280;46248;58.364;25.582;2023-04-08T14:03:03;101773.72;;;12.47;36.50
59767;BME280;46248;58.364;25.582;2023-04-08T14:06:25;101765.94;;;12.44;35.41
59767;BME280;46248;58.364;25.582;2023-04-08T14:09:47;101772.06;;;12.45;34.96
59767;BME280;46248;58.364;25.582;2023-04-08T14:13:10;101763.25;;;12.46;35.82
59767;BME280;46248;58.364;25.582;2023-04-08T14:16:33;101765.88;;;12.46;36.04
59767;BME280;46248;58.364;25.582;2023-04-08T14:19:55;101770.09;;;12.50;36.25
59767;BME280;46248;58.364;25.582;2023-04-08T14:23:18;101769.19;;;12.51;35.69
59767;BME280;46248;58.364;25.582;2023-04-08T14:26:40;101770.88;;;12.52;36.01
59767;BME280;46248;58.364;25.582;2023-04-08T14:30:05;101770.09;;;12.50;36.08
59767;BME280;46248;58.364;25.582;2023-04-08T14:33:28;101768.50;;;12.46;35.03
59767;BME280;46248;58.364;25.582;2023-04-08T14:36:50;101768.50;;;12.46;35.68
59767;BME280;46248;58.364;25.582;2023-04-08T14:40:12;101760.81;;;12.41;33.33
59767;BME280;46248;58.364;25.582;2023-04-08T14:43:35;101764.28;;;12.42;35.71
59767;BME280;46248;58.364;25.582;2023-04-08T14:46:58;101759.97;;;12.41;34.76
59767;BME280;46248;58.364;25.582;2023-04-08T14:50:20;101750.44;;;12.38;35.71
59767;BME280;46248;58.364;25.582;2023-04-08T14:53:42;101757.25;;;12.42;35.13
59767;BME280;46248;58.364;25.582;2023-04-08T14:57:04;101747.59;;;12.43;35.14
59767;BME280;46248;58.364;25.582;2023-04-08T15:00:26;101756.28;;;12.45;35.57
59767;BME280;46248;58.364;25.582;2023-04-08T15:03:50;101752.84;;;12.43;34.18
59767;BME280;46248;58.364;25.582;2023-04-08T15:07:12;101756.41;;;12.42;35.31
59767;BME280;46248;58.364;25.582;2023-04-08T15:10:34;101750.44;;;12.38;36.16
59767;BME280;46248;58.364;25.582;2023-04-08T15:13:56;101743.63;;;12.32;35.10
59767;BME280;46248;58.364;25.582;2023-04-08T15:17:17;101738.38;;;12.32;36.21
59767;BME280;46248;58.364;25.582;2023-04-08T15:20:41;101743.63;;;12.32;35.49
59767;BME280;46248;58.364;25.582;2023-04-08T15:24:03;101741.06;;;12.31;35.42
59767;BME280;46248;58.364;25.582;2023-04-08T15:27:27;101744.50;;;12.33;35.79
59767;BME280;46248;58.364;25.582;2023-04-08T15:30:49;101737.47;;;12.33;35.43
59767;BME280;46248;58.364;25.582;2023-04-08T15:34:11;101738.38;;;12.32;35.37
59767;BME280;46248;58.364;25.582;2023-04-08T15:37:34;101738.44;;;12.31;35.83
59767;BME280;46248;58.364;25.582;2023-04-08T15:40:56;101733.38;;;12.26;35.26
59767;BME280;46248;58.364;25.582;2023-04-08T15:44:18;101736.13;;;12.23;35.72
59767;BME280;46248;58.364;25.582;2023-04-08T15:47:41;101730.97;;;12.20;36.36
59767;BME280;46248;58.364;25.582;2023-04-08T15:51:05;101728.47;;;12.17;36.60
59767;BME280;46248;58.364;25.582;2023-04-08T15:54:29;101731.16;;;12.15;36.64
59767;BME280;46248;58.364;25.582;2023-04-08T15:57:52;101732.06;;;12.14;37.12
59767;BME280;46248;58.364;25.582;2023-04-08T16:01:16;101727.88;;;12.10;35.99
59767;BME280;46248;58.364;25.582;2023-04-08T16:04:38;101729.84;;;12.04;36.03
59767;BME280;46248;58.364;25.582;2023-04-08T16:08:00;101740.34;;;12.04;35.98
59767;BME280;46248;58.364;25.582;2023-04-08T16:11:25;101745.72;;;12.01;36.49
59767;BME280;46248;58.364;25.582;2023-04-08T16:14:48;101739.78;;;11.96;37.06
59767;BME280;46248;58.364;25.582;2023-04-08T16:18:10;101743.50;;;11.90;37.10
59767;BME280;46248;58.364;25.582;2023-04-08T16:21:32;101745.38;;;11.86;37.24
59767;BME280;46248;58.364;25.582;2023-04-08T16:24:56;101729.38;;;11.69;37.61
59767;BME280;46248;58.364;25.582;2023-04-08T16:28:20;101747.66;;;11.70;37.51
59767;BME280;46248;58.364;25.582;2023-04-08T16:31:42;101749.53;;;11.67;37.75
59767;BME280;46248;58.364;25.582;2023-04-08T16:35:05;101751.50;;;11.62;38.16
59767;BME280;46248;58.364;25.582;2023-04-08T16:38:28;101751.03;;;11.51;38.38
59767;BME280;46248;58.364;25.582;2023-04-08T16:41:50;101756.38;;;11.48;38.46
59767;BME280;46248;58.364;25.582;2023-04-08T16:45:14;101754.81;;;11.42;38.54
59767;BME280;46248;58.364;25.582;2023-04-08T16:48:36;101756.00;;;11.33;39.01
59767;BME280;46248;58.364;25.582;2023-04-08T16:52:00;101760.63;;;11.25;39.05
59767;BME280;46248;58.364;25.582;2023-04-08T16:55:23;101759.25;;;11.15;39.63
59767;BME280;46248;58.364;25.582;2023-04-08T16:58:45;101768.34;;;11.05;39.54
59767;BME280;46248;58.364;25.582;2023-04-08T17:02:08;101766.91;;;10.94;40.03
59767;BME280;46248;58.364;25.582;2023-04-08T17:05:31;101765.53;;;10.83;40.16
59767;BME280;46248;58.364;25.582;2023-04-08T17:08:53;101772.03;;;10.71;40.54
59767;BME280;46248;58.364;25.582;2023-04-08T17:12:16;101777.66;;;10.59;40.68
59767;BME280;46248;58.364;25.582;2023-04-08T17:15:38;101776.41;;;10.42;40.72
59767;BME280;46248;58.364;25.582;2023-04-08T17:19:01;101770.72;;;10.29;41.05
59767;BME280;46248;58.364;25.582;2023-04-08T17:22:23;101781.50;;;10.17;41.79
59767;BME280;46248;58.364;25.582;2023-04-08T17:25:46;101781.88;;;10.05;42.09
59767;BME280;46248;58.364;25.582;2023-04-08T17:29:07;101790.00;;;9.94;42.34
59767;BME280;46248;58.364;25.582;2023-04-08T17:32:29;101792.88;;;9.85;42.58
59767;BME280;46248;58.364;25.582;2023-04-08T17:35:53;101792.31;;;9.74;42.78
59767;BME280;46248;58.364;25.582;2023-04-08T17:39:15;101794.38;;;9.62;43.17